createdAt,value
2022-08-11T00:00:34.291Z,17.36
2022-08-11T00:01:34.390Z,17.36
2022-08-11T00:02:34.358Z,17.37
2022-08-11T00:03:43.212Z,17.36
2022-08-11T00:04:35.252Z,17.36
2022-08-11T00:05:34.239Z,17.34
2022-08-11T00:06:34.201Z,17.32
2022-08-11T00:07:34.249Z,17.29
2022-08-11T00:08:34.171Z,17.29
2022-08-11T00:09:39.469Z,17.28
2022-08-11T00:10:35.171Z,17.28
2022-08-11T00:11:35.361Z,17.28
2022-08-11T00:12:34.239Z,17.28
2022-08-11T00:13:34.192Z,17.29
2022-08-11T00:14:36.777Z,17.29
2022-08-11T00:15:34.080Z,17.26
2022-08-11T00:16:34.182Z,17.24
2022-08-11T00:17:34.071Z,17.20
2022-08-11T00:18:34.123Z,17.17
2022-08-11T00:20:12.477Z,17.15
2022-08-11T00:20:35.016Z,17.11
2022-08-11T00:22:03.812Z,17.09
2022-08-11T00:22:35.004Z,17.06
2022-08-11T00:23:33.975Z,17.05
2022-08-11T00:24:52.079Z,17.03
2022-08-11T00:25:34.944Z,17.01
2022-08-11T00:26:34.083Z,16.99
2022-08-11T00:27:33.954Z,16.95
2022-08-11T00:28:34.014Z,16.91
2022-08-11T00:29:33.893Z,16.87
2022-08-11T00:30:33.903Z,16.83
2022-08-11T00:31:33.866Z,16.81
2022-08-11T00:32:35.014Z,16.79
2022-08-11T00:33:41.359Z,16.78
2022-08-11T00:34:34.824Z,16.77
2022-08-11T00:36:43.276Z,16.22
2022-08-11T00:37:43.053Z,16.22
2022-08-11T00:38:43.132Z,16.45
2022-08-11T00:39:43.081Z,16.59
2022-08-11T00:40:43.142Z,16.65
2022-08-11T00:41:43.009Z,16.70
2022-08-11T00:42:43.073Z,16.71
2022-08-11T00:43:43.037Z,16.70
2022-08-11T00:44:43.164Z,16.69
2022-08-11T00:45:42.943Z,16.66
2022-08-11T00:46:43.044Z,16.66
2022-08-11T00:47:42.923Z,16.65
2022-08-11T00:48:42.974Z,16.63
2022-08-11T00:49:42.903Z,16.59
2022-08-11T00:50:43.064Z,16.54
2022-08-11T00:52:02.376Z,16.53
2022-08-11T00:52:43.857Z,16.50
2022-08-11T00:53:42.883Z,16.46
2022-08-11T00:54:42.823Z,16.44
2022-08-11T00:55:42.950Z,16.46
2022-08-11T00:56:42.824Z,16.49
2022-08-11T00:57:43.904Z,16.53
2022-08-11T00:58:42.775Z,16.54
2022-08-11T00:59:42.925Z,16.53
2022-08-11T01:00:42.801Z,16.50
2022-08-11T01:01:42.854Z,16.47
2022-08-11T01:02:42.747Z,16.41
2022-08-11T01:04:05.865Z,16.36
2022-08-11T01:04:42.695Z,16.33
2022-08-11T01:05:42.835Z,16.34
2022-08-11T01:06:42.665Z,16.38
2022-08-11T01:08:01.359Z,16.42
2022-08-11T01:08:43.656Z,16.46
2022-08-11T01:09:42.687Z,16.48
2022-08-11T01:10:42.608Z,16.50
2022-08-11T01:11:55.132Z,16.48
2022-08-11T01:12:43.585Z,16.44
2022-08-11T01:13:42.616Z,16.40
2022-08-11T01:14:42.607Z,16.35
2022-08-11T01:15:43.655Z,16.31
2022-08-11T01:16:43.527Z,16.27
2022-08-11T01:17:42.656Z,16.22
2022-08-11T01:18:42.498Z,16.20
2022-08-11T01:20:45.207Z,16.18
2022-08-11T01:20:46.881Z,16.17
2022-08-11T01:21:43.466Z,16.16
2022-08-11T01:22:44.675Z,16.12
2022-08-11T01:23:42.436Z,16.10
2022-08-11T01:24:42.506Z,16.08
2022-08-11T01:25:57.259Z,16.08
2022-08-11T01:26:43.427Z,16.10
2022-08-11T01:27:44.615Z,16.11
2022-08-11T01:28:42.366Z,16.13
2022-08-11T01:29:42.450Z,16.13
2022-08-11T01:30:43.338Z,16.13
2022-08-11T01:31:42.486Z,16.15
2022-08-11T01:32:42.338Z,16.15
2022-08-11T01:33:42.349Z,16.14
2022-08-11T01:34:42.289Z,16.13
2022-08-11T01:35:42.368Z,16.11
2022-08-11T01:36:42.260Z,16.09
2022-08-11T01:37:42.288Z,16.07
2022-08-11T01:38:42.264Z,16.04
2022-08-11T01:39:43.377Z,16.02
2022-08-11T01:40:42.198Z,16.01
2022-08-11T01:41:42.357Z,16.00
2022-08-11T01:42:42.177Z,16.00
2022-08-11T01:43:43.368Z,16.00
2022-08-11T01:44:42.146Z,15.99
2022-08-11T01:45:43.246Z,15.99
2022-08-11T01:46:42.127Z,15.99
2022-08-11T01:47:53.346Z,15.99
2022-08-11T01:48:43.095Z,15.99
2022-08-11T01:50:07.639Z,16.01
2022-08-11T01:51:06.266Z,16.04
2022-08-11T01:51:45.213Z,16.05
2022-08-11T01:52:42.327Z,16.04
2022-08-11T01:53:42.027Z,16.03
2022-08-11T01:54:42.137Z,16.02
2022-08-11T01:55:42.017Z,16.01
2022-08-11T01:56:42.077Z,15.99
2022-08-11T01:57:41.967Z,15.98
2022-08-11T01:58:44.203Z,15.98
2022-08-11T01:59:41.948Z,15.97
2022-08-11T02:01:03.231Z,15.97
2022-08-11T02:01:41.918Z,15.95
2022-08-11T02:02:41.981Z,15.94
2022-08-11T02:03:41.897Z,15.92
2022-08-11T02:04:42.015Z,15.92
2022-08-11T02:05:41.867Z,15.92
2022-08-11T02:06:45.178Z,15.90
2022-08-11T02:07:41.837Z,15.89
2022-08-11T02:08:44.839Z,15.86
2022-08-11T02:09:49.538Z,15.86
2022-08-11T02:10:42.798Z,15.85
2022-08-11T02:11:42.801Z,15.84
2022-08-11T02:12:44.414Z,15.81
2022-08-11T02:13:44.672Z,15.77
2022-08-11T02:14:41.740Z,15.73
2022-08-11T02:15:42.730Z,15.72
2022-08-11T02:16:41.836Z,15.72
2022-08-11T02:17:41.744Z,15.72
2022-08-11T02:18:41.767Z,15.71
2022-08-11T02:19:41.687Z,15.71
2022-08-11T02:20:41.672Z,15.74
2022-08-11T02:21:41.773Z,15.77
2022-08-11T02:22:41.641Z,15.78
2022-08-11T02:24:05.449Z,15.78
2022-08-11T02:25:04.690Z,15.77
2022-08-11T02:25:41.599Z,15.78
2022-08-11T02:26:41.725Z,15.76
2022-08-11T02:27:41.581Z,15.74
2022-08-11T02:28:46.659Z,15.72
2022-08-11T02:29:42.572Z,15.71
2022-08-11T02:30:41.671Z,15.70
2022-08-11T02:32:23.955Z,15.69
2022-08-11T02:32:42.700Z,15.67
2022-08-11T02:33:41.510Z,15.65
2022-08-11T02:34:41.709Z,15.63
2022-08-11T02:35:41.473Z,15.61
2022-08-11T02:36:41.696Z,15.57
2022-08-11T02:37:41.453Z,15.53
2022-08-11T02:38:42.548Z,15.50
2022-08-11T02:39:41.484Z,15.50
2022-08-11T02:40:41.501Z,15.50
2022-08-11T02:41:41.403Z,15.49
2022-08-11T02:42:41.423Z,15.47
2022-08-11T02:43:41.372Z,15.44
2022-08-11T02:44:42.363Z,15.41
2022-08-11T02:46:02.433Z,15.38
2022-08-11T02:46:41.333Z,15.38
2022-08-11T02:47:41.321Z,15.37
2022-08-11T02:48:41.402Z,15.36
2022-08-11T02:49:41.292Z,15.35
2022-08-11T02:50:41.433Z,15.33
2022-08-11T02:51:41.300Z,15.32
2022-08-11T02:52:41.362Z,15.31
2022-08-11T02:53:41.251Z,15.30
2022-08-11T02:54:43.512Z,15.30
2022-08-11T02:55:48.613Z,15.30
2022-08-11T02:56:42.235Z,15.29
2022-08-11T02:57:41.303Z,15.29
2022-08-11T02:58:41.183Z,15.29
2022-08-11T02:59:42.363Z,15.25
2022-08-11T03:00:41.171Z,15.21
2022-08-11T03:01:41.391Z,15.18
2022-08-11T03:02:41.174Z,15.18
2022-08-11T03:03:41.221Z,15.19
2022-08-11T03:04:41.134Z,15.22
2022-08-11T03:06:02.224Z,15.25
2022-08-11T03:06:41.082Z,15.28
2022-08-11T03:07:41.215Z,15.27
2022-08-11T03:08:41.063Z,15.25
2022-08-11T03:09:41.153Z,15.23
2022-08-11T03:10:41.034Z,15.23
2022-08-11T03:11:42.073Z,15.25
2022-08-11T03:12:40.994Z,15.31
2022-08-11T03:13:41.140Z,15.34
2022-08-11T03:14:40.994Z,15.36
2022-08-11T03:15:41.147Z,15.36
2022-08-11T03:16:40.951Z,15.37
2022-08-11T03:17:41.084Z,15.39
2022-08-11T03:18:40.930Z,15.39
2022-08-11T03:19:40.986Z,15.38
2022-08-11T03:20:40.936Z,15.36
2022-08-11T03:22:02.921Z,15.34
2022-08-11T03:22:41.866Z,15.32
2022-08-11T03:23:40.967Z,15.30
2022-08-11T03:24:40.848Z,15.26
2022-08-11T03:25:41.005Z,15.22
2022-08-11T03:26:40.845Z,15.20
2022-08-11T03:27:40.935Z,15.19
2022-08-11T03:28:40.784Z,15.18
2022-08-11T03:29:40.862Z,15.15
2022-08-11T03:30:40.758Z,15.11
2022-08-11T03:31:40.915Z,15.06
2022-08-11T03:32:40.765Z,15.03
2022-08-11T03:33:42.936Z,15.01
2022-08-11T03:34:40.705Z,15.03
2022-08-11T03:35:40.875Z,15.07
2022-08-11T03:37:15.203Z,15.12
2022-08-11T03:37:41.705Z,15.14
2022-08-11T03:38:40.655Z,15.13
2022-08-11T03:39:40.795Z,15.12
2022-08-11T03:40:41.638Z,15.13
2022-08-11T03:42:03.715Z,15.15
2022-08-11T03:42:41.607Z,15.18
2022-08-11T03:43:50.164Z,15.19
2022-08-11T03:44:41.575Z,15.18
2022-08-11T03:45:42.747Z,15.15
2022-08-11T03:46:40.555Z,15.09
2022-08-11T03:47:40.586Z,15.06
2022-08-11T03:48:41.548Z,15.05
2022-08-11T03:50:54.827Z,14.41
2022-08-11T03:51:51.734Z,14.41
2022-08-11T03:52:49.936Z,14.63
2022-08-11T03:53:49.893Z,14.73
2022-08-11T03:54:50.993Z,14.77
2022-08-11T03:55:49.844Z,14.77
2022-08-11T03:56:50.013Z,14.75
2022-08-11T03:57:49.804Z,14.71
2022-08-11T03:58:49.955Z,14.67
2022-08-11T03:59:49.795Z,14.62
2022-08-11T04:00:49.985Z,14.58
2022-08-11T04:01:49.842Z,14.55
2022-08-11T04:02:49.805Z,14.54
2022-08-11T04:03:49.726Z,14.53
2022-08-11T04:04:50.678Z,14.51
2022-08-11T04:05:49.705Z,14.48
2022-08-11T04:06:49.789Z,14.45
2022-08-11T04:07:49.686Z,14.44
2022-08-11T04:08:49.728Z,14.44
2022-08-11T04:09:49.657Z,14.45
2022-08-11T04:10:49.708Z,14.45
2022-08-11T04:11:49.625Z,14.45
2022-08-11T04:12:49.917Z,14.43
2022-08-11T04:13:49.601Z,14.41
2022-08-11T04:14:52.207Z,14.39
2022-08-11T04:15:49.575Z,14.39
2022-08-11T04:16:49.717Z,14.40
2022-08-11T04:17:49.548Z,14.41
2022-08-11T04:18:49.695Z,14.43
2022-08-11T04:19:49.516Z,14.44
2022-08-11T04:20:49.633Z,14.45
2022-08-11T04:21:49.495Z,14.46
2022-08-11T04:22:49.625Z,14.48
2022-08-11T04:24:35.745Z,14.50
2022-08-11T04:24:50.779Z,14.52
2022-08-11T04:25:57.457Z,14.54
2022-08-11T04:26:50.428Z,14.56
2022-08-11T04:27:49.506Z,14.58
2022-08-11T04:28:50.264Z,14.57
2022-08-11T04:30:03.667Z,14.57
2022-08-11T04:30:50.377Z,14.57
2022-08-11T04:31:52.815Z,14.57
2022-08-11T04:32:49.347Z,14.58
2022-08-11T04:33:49.407Z,14.59
2022-08-11T04:34:49.339Z,14.61
2022-08-11T04:35:51.324Z,14.63
2022-08-11T04:36:49.296Z,14.65
2022-08-11T04:37:53.410Z,14.69
2022-08-11T04:38:49.278Z,14.71
2022-08-11T04:39:49.520Z,14.72
2022-08-11T04:40:49.268Z,14.74
2022-08-11T04:41:49.355Z,14.76
2022-08-11T04:42:49.218Z,14.78
2022-08-11T04:44:02.684Z,14.79
2022-08-11T04:44:50.188Z,14.80
2022-08-11T04:45:50.240Z,14.83
2022-08-11T04:46:49.182Z,14.86
2022-08-11T04:48:03.990Z,14.89
2022-08-11T04:48:50.144Z,14.92
2022-08-11T04:49:51.289Z,14.95
2022-08-11T04:51:00.673Z,14.98
2022-08-11T04:51:50.119Z,15.01
2022-08-11T04:52:49.189Z,15.04
2022-08-11T04:53:52.439Z,15.06
2022-08-11T04:54:50.263Z,15.08
2022-08-11T04:55:49.041Z,15.09
2022-08-11T04:56:49.071Z,15.11
2022-08-11T04:57:49.037Z,15.13
2022-08-11T04:58:49.107Z,15.16
2022-08-11T04:59:48.987Z,15.18
2022-08-11T05:00:50.058Z,15.21
2022-08-11T05:01:49.027Z,15.23
2022-08-11T05:02:49.067Z,15.26
2022-08-11T05:03:48.948Z,15.30
2022-08-11T05:04:49.007Z,15.34
2022-08-11T05:05:56.372Z,15.38
2022-08-11T05:06:49.890Z,15.41
2022-08-11T05:07:49.009Z,15.45
2022-08-11T05:08:48.869Z,15.48
2022-08-11T05:09:49.019Z,15.51
2022-08-11T05:10:48.848Z,15.53
2022-08-11T05:11:49.912Z,15.55
2022-08-11T05:12:48.818Z,15.58
2022-08-11T05:13:48.925Z,15.61
2022-08-11T05:14:48.793Z,15.62
2022-08-11T05:15:51.556Z,15.64
2022-08-11T05:16:48.759Z,15.66
2022-08-11T05:18:09.862Z,15.69
2022-08-11T05:18:48.739Z,15.72
2022-08-11T05:19:48.821Z,15.76
2022-08-11T05:20:48.710Z,15.80
2022-08-11T05:21:50.860Z,15.83
2022-08-11T05:22:48.681Z,15.87
2022-08-11T05:23:48.798Z,15.91
2022-08-11T05:24:48.659Z,15.95
2022-08-11T05:26:43.530Z,15.99
2022-08-11T05:26:50.014Z,16.02
2022-08-11T05:27:48.822Z,16.06
2022-08-11T05:28:48.601Z,16.09
2022-08-11T05:29:48.700Z,16.11
2022-08-11T05:30:48.582Z,16.15
2022-08-11T05:31:48.630Z,16.18
2022-08-11T05:32:48.552Z,16.22
2022-08-11T05:33:51.900Z,16.25
2022-08-11T05:34:48.520Z,16.29
2022-08-11T05:36:00.782Z,16.33
2022-08-11T05:36:49.499Z,16.36
2022-08-11T05:37:49.669Z,16.39
2022-08-11T05:38:48.470Z,16.42
2022-08-11T05:39:51.839Z,16.44
2022-08-11T05:40:51.255Z,16.46
2022-08-11T05:41:49.438Z,16.50
2022-08-11T05:42:48.483Z,16.56
2022-08-11T05:44:19.737Z,16.62
2022-08-11T05:44:49.420Z,16.69
2022-08-11T05:45:58.679Z,16.76
2022-08-11T05:46:49.370Z,16.85
2022-08-11T05:47:48.413Z,16.90
2022-08-11T05:48:48.351Z,16.96
2022-08-11T05:49:48.454Z,17.02
2022-08-11T05:50:48.341Z,17.07
2022-08-11T05:51:53.640Z,17.13
2022-08-11T05:52:55.422Z,17.18
2022-08-11T05:53:49.282Z,17.25
2022-08-11T05:54:48.476Z,17.33
2022-08-11T05:56:02.401Z,17.42
2022-08-11T05:56:49.262Z,17.50
2022-08-11T05:58:57.699Z,17.14
2022-08-11T05:59:57.567Z,17.14
2022-08-11T06:00:57.608Z,17.33
2022-08-11T06:01:57.585Z,17.46
2022-08-11T06:02:57.625Z,17.56
2022-08-11T06:03:57.938Z,17.67
2022-08-11T06:04:57.536Z,17.75
2022-08-11T06:05:57.486Z,17.83
2022-08-11T06:06:57.547Z,17.86
2022-08-11T06:07:57.600Z,17.86
2022-08-11T06:08:57.457Z,17.89
2022-08-11T06:09:57.434Z,17.93
2022-08-11T06:10:57.476Z,17.98
2022-08-11T06:11:57.408Z,18.04
2022-08-11T06:12:57.487Z,18.14
2022-08-11T06:13:57.398Z,18.24
2022-08-11T06:14:57.404Z,18.32
2022-08-11T06:15:57.352Z,18.35
2022-08-11T06:16:58.440Z,18.39
2022-08-11T06:17:57.322Z,18.41
2022-08-11T06:18:57.430Z,18.43
2022-08-11T06:19:57.308Z,18.51
2022-08-11T06:20:58.299Z,18.57
2022-08-11T06:21:57.353Z,18.61
2022-08-11T06:22:57.253Z,18.64
2022-08-11T06:23:57.266Z,18.67
2022-08-11T06:24:57.241Z,18.70
2022-08-11T06:25:58.259Z,18.73
2022-08-11T06:27:13.655Z,18.75
2022-08-11T06:27:58.191Z,18.76
2022-08-11T06:28:57.299Z,18.79
2022-08-11T06:29:57.180Z,18.82
2022-08-11T06:30:57.220Z,18.85
2022-08-11T06:31:57.172Z,18.87
2022-08-11T06:32:57.229Z,18.87
2022-08-11T06:33:57.120Z,18.87
2022-08-11T06:34:57.207Z,18.88
2022-08-11T06:35:57.089Z,18.90
2022-08-11T06:36:57.246Z,18.92
2022-08-11T06:37:59.002Z,18.94
2022-08-11T06:38:57.084Z,19.00
2022-08-11T06:39:57.144Z,19.04
2022-08-11T06:40:57.100Z,19.07
2022-08-11T06:41:56.989Z,19.13
2022-08-11T06:42:57.170Z,19.18
2022-08-11T06:43:58.953Z,19.22
2022-08-11T06:44:56.959Z,19.24
2022-08-11T06:45:57.076Z,19.26
2022-08-11T06:46:56.930Z,19.25
2022-08-11T06:47:57.089Z,19.24
2022-08-11T06:48:56.903Z,19.25
2022-08-11T06:49:57.094Z,19.28
2022-08-11T06:50:56.891Z,19.33
2022-08-11T06:51:56.966Z,19.37
2022-08-11T06:52:56.856Z,19.38
2022-08-11T06:54:17.871Z,19.37
2022-08-11T06:54:56.829Z,19.36
2022-08-11T06:55:59.047Z,19.37
2022-08-11T06:57:26.496Z,19.38
2022-08-11T06:57:57.835Z,19.41
2022-08-11T06:58:56.774Z,19.46
2022-08-11T06:59:56.903Z,19.51
2022-08-11T07:00:56.771Z,19.57
2022-08-11T07:01:56.868Z,19.59
2022-08-11T07:02:56.712Z,19.61
2022-08-11T07:03:57.763Z,19.63
2022-08-11T07:04:56.685Z,19.66
2022-08-11T07:05:56.749Z,19.71
2022-08-11T07:06:56.681Z,19.76
2022-08-11T07:07:57.691Z,19.81
2022-08-11T07:08:57.635Z,19.82
2022-08-11T07:09:56.783Z,19.85
2022-08-11T07:10:56.603Z,19.88
2022-08-11T07:11:56.694Z,19.91
2022-08-11T07:12:56.594Z,19.97
2022-08-11T07:13:57.627Z,20.03
2022-08-11T07:15:00.586Z,20.08
2022-08-11T07:16:11.180Z,20.12
2022-08-11T07:16:57.523Z,20.15
2022-08-11T07:17:56.515Z,20.15
2022-08-11T07:18:56.624Z,20.15
2022-08-11T07:19:56.935Z,20.17
2022-08-11T07:21:01.785Z,20.19
2022-08-11T07:22:02.244Z,20.23
2022-08-11T07:22:57.443Z,20.27
2022-08-11T07:23:56.524Z,20.32
2022-08-11T07:24:59.239Z,20.37
2022-08-11T07:25:57.405Z,20.43
2022-08-11T07:26:56.523Z,20.46
2022-08-11T07:27:56.374Z,20.50
2022-08-11T07:28:56.467Z,20.55
2022-08-11T07:29:56.345Z,20.61
2022-08-11T07:30:56.383Z,20.66
2022-08-11T07:31:56.323Z,20.67
2022-08-11T07:32:56.443Z,20.69
2022-08-11T07:34:07.748Z,20.71
2022-08-11T07:34:57.293Z,20.73
2022-08-11T07:35:57.332Z,20.75
2022-08-11T07:36:56.261Z,20.78
2022-08-11T07:38:02.120Z,20.80
2022-08-11T07:38:57.229Z,20.82
2022-08-11T07:39:56.330Z,20.84
2022-08-11T07:40:56.225Z,20.87
2022-08-11T07:41:56.337Z,20.92
2022-08-11T07:42:56.178Z,20.98
2022-08-11T07:43:56.275Z,21.04
2022-08-11T07:44:56.150Z,21.09
2022-08-11T07:45:56.349Z,21.13
2022-08-11T07:46:56.147Z,21.16
2022-08-11T07:47:56.252Z,21.18
2022-08-11T07:48:56.096Z,21.18
2022-08-11T07:49:57.229Z,21.17
2022-08-11T07:50:56.353Z,21.17
2022-08-11T07:51:56.220Z,21.18
2022-08-11T07:52:56.066Z,21.18
2022-08-11T07:53:58.592Z,21.19
2022-08-11T07:54:57.012Z,21.21
2022-08-11T07:55:58.088Z,21.22
2022-08-11T07:57:09.464Z,21.23
2022-08-11T07:58:15.467Z,21.25
2022-08-11T07:59:03.393Z,21.31
2022-08-11T08:00:03.935Z,21.41
2022-08-11T08:00:59.194Z,21.51
2022-08-11T08:01:55.957Z,21.63
2022-08-11T08:02:55.958Z,21.75
2022-08-11T08:03:55.914Z,21.87
2022-08-11T08:04:55.998Z,22.00
2022-08-11T08:05:55.869Z,22.12
2022-08-11T08:06:56.950Z,22.24
2022-08-11T08:07:55.842Z,22.33
2022-08-11T08:08:55.983Z,22.37
2022-08-11T08:09:55.851Z,22.38
2022-08-11T08:10:55.901Z,22.37
2022-08-11T08:11:55.780Z,22.36
2022-08-11T08:12:55.831Z,22.35
2022-08-11T08:13:55.751Z,22.35
2022-08-11T08:14:55.873Z,22.36
2022-08-11T08:15:55.852Z,22.36
2022-08-11T08:16:56.831Z,22.38
2022-08-11T08:18:09.799Z,22.39
2022-08-11T08:18:56.693Z,22.39
2022-08-11T08:19:55.811Z,22.40
2022-08-11T08:20:55.699Z,22.44
2022-08-11T08:21:55.802Z,22.51
2022-08-11T08:24:06.119Z,22.33
2022-08-11T08:25:05.910Z,22.33
2022-08-11T08:26:05.969Z,22.56
2022-08-11T08:27:06.909Z,22.70
2022-08-11T08:28:07.979Z,22.71
2022-08-11T08:29:05.859Z,22.71
2022-08-11T08:30:06.037Z,22.71
2022-08-11T08:31:05.830Z,22.72
2022-08-11T08:32:06.978Z,22.76
2022-08-11T08:33:05.833Z,22.81
2022-08-11T08:34:06.910Z,22.83
2022-08-11T08:35:05.781Z,22.85
2022-08-11T08:36:05.830Z,22.89
2022-08-11T08:37:16.080Z,22.92
2022-08-11T08:38:06.760Z,23.00
2022-08-11T08:39:05.732Z,23.09
2022-08-11T08:40:05.838Z,23.16
2022-08-11T08:41:05.705Z,23.21
2022-08-11T08:42:05.831Z,23.27
2022-08-11T08:43:05.673Z,23.33
2022-08-11T08:44:37.881Z,23.38
2022-08-11T08:45:27.740Z,23.40
2022-08-11T08:46:05.643Z,23.41
2022-08-11T08:47:05.779Z,23.42
2022-08-11T08:48:05.767Z,23.42
2022-08-11T08:49:05.701Z,23.41
2022-08-11T08:50:05.611Z,23.40
2022-08-11T08:51:08.100Z,23.39
2022-08-11T08:52:30.664Z,23.36
2022-08-11T08:53:06.553Z,23.34
2022-08-11T08:54:05.640Z,23.36
2022-08-11T08:55:05.530Z,23.41
2022-08-11T08:56:05.635Z,23.47
2022-08-11T08:57:05.527Z,23.51
2022-08-11T08:58:05.611Z,23.53
2022-08-11T08:59:05.491Z,23.56
2022-08-11T09:00:05.652Z,23.61
2022-08-11T09:01:05.477Z,23.65
2022-08-11T09:02:09.842Z,23.67
2022-08-11T09:03:29.555Z,23.69
2022-08-11T09:04:11.397Z,23.68
2022-08-11T09:05:06.394Z,23.64
2022-08-11T09:06:05.457Z,23.61
2022-08-11T09:07:05.366Z,23.55
2022-08-11T09:08:05.544Z,23.50
2022-08-11T09:09:05.335Z,23.47
2022-08-11T09:10:05.425Z,23.44
2022-08-11T09:11:06.746Z,23.43
2022-08-11T09:12:06.379Z,23.44
2022-08-11T09:13:05.277Z,23.46
2022-08-11T09:14:08.385Z,23.49
2022-08-11T09:15:06.259Z,23.52
2022-08-11T09:16:05.336Z,23.54
2022-08-11T09:17:05.228Z,23.56
2022-08-11T09:18:05.363Z,23.58
2022-08-11T09:19:05.245Z,23.61
2022-08-11T09:20:06.326Z,23.64
2022-08-11T09:21:05.187Z,23.68
2022-08-11T09:22:05.236Z,23.72
2022-08-11T09:24:08.368Z,23.81
2022-08-11T09:25:05.125Z,23.85
2022-08-11T09:26:05.220Z,23.89
2022-08-11T09:27:05.087Z,23.91
2022-08-11T09:28:05.166Z,23.93
2022-08-11T09:29:05.062Z,23.95
2022-08-11T09:30:05.137Z,23.99
2022-08-11T09:31:05.039Z,24.03
2022-08-11T09:32:05.109Z,24.09
2022-08-11T09:33:05.012Z,24.17
2022-08-11T09:34:05.160Z,24.25
2022-08-11T09:35:04.980Z,24.33
2022-08-11T09:36:05.160Z,24.41
2022-08-11T09:37:04.951Z,24.47
2022-08-11T09:38:05.030Z,24.54
2022-08-11T09:39:04.933Z,24.59
2022-08-11T09:40:04.940Z,24.62
2022-08-11T09:41:04.902Z,24.61
2022-08-11T09:42:05.975Z,24.58
2022-08-11T09:43:05.881Z,24.53
2022-08-11T09:44:05.041Z,24.48
2022-08-11T09:45:04.851Z,24.45
2022-08-11T09:46:04.960Z,24.44
2022-08-11T09:47:04.822Z,24.44
2022-08-11T09:48:05.063Z,24.46
2022-08-11T09:49:04.801Z,24.49
2022-08-11T09:50:04.815Z,24.49
2022-08-11T09:51:04.780Z,24.49
2022-08-11T09:52:05.363Z,24.48
2022-08-11T09:53:36.611Z,24.50
2022-08-11T09:54:05.753Z,24.53
2022-08-11T09:55:04.723Z,24.56
2022-08-11T09:56:04.844Z,24.59
2022-08-11T09:57:05.499Z,24.60
2022-08-11T09:58:04.773Z,24.61
2022-08-11T09:59:04.666Z,24.60
2022-08-11T10:00:09.489Z,24.58
2022-08-11T10:01:05.695Z,24.56
2022-08-11T10:02:04.744Z,24.55
2022-08-11T10:03:04.622Z,24.55
2022-08-11T10:04:04.887Z,24.54
2022-08-11T10:05:04.583Z,24.53
2022-08-11T10:06:08.045Z,24.53
2022-08-11T10:07:05.235Z,24.54
2022-08-11T10:08:04.665Z,24.56
2022-08-11T10:09:04.534Z,24.60
2022-08-11T10:10:04.587Z,24.64
2022-08-11T10:11:04.517Z,24.65
2022-08-11T10:12:05.637Z,24.66
2022-08-11T10:13:04.491Z,24.68
2022-08-11T10:14:33.270Z,24.71
2022-08-11T10:15:05.457Z,24.73
2022-08-11T10:16:15.342Z,24.74
2022-08-11T10:17:05.436Z,24.73
2022-08-11T10:18:06.496Z,24.68
2022-08-11T10:19:04.406Z,24.65
2022-08-11T10:20:06.058Z,24.64
2022-08-11T10:21:04.377Z,24.65
2022-08-11T10:22:04.496Z,24.66
2022-08-11T10:23:04.355Z,24.67
2022-08-11T10:24:08.589Z,24.67
2022-08-11T10:25:04.338Z,24.64
2022-08-11T10:26:04.368Z,24.61
2022-08-11T10:27:04.307Z,24.59
2022-08-11T10:28:28.865Z,24.60
2022-08-11T10:29:13.244Z,24.60
2022-08-11T10:30:05.267Z,24.62
2022-08-11T10:31:04.298Z,24.64
2022-08-11T10:32:04.582Z,24.67
2022-08-11T10:33:04.347Z,24.69
2022-08-11T10:34:04.219Z,24.71
2022-08-11T10:35:05.353Z,24.72
2022-08-11T10:36:04.180Z,24.74
2022-08-11T10:37:05.180Z,24.76
2022-08-11T10:38:07.949Z,24.76
2022-08-11T10:39:05.154Z,24.77
2022-08-11T10:40:04.211Z,24.78
2022-08-11T10:41:04.190Z,24.79
2022-08-11T10:42:08.815Z,24.82
2022-08-11T10:43:05.090Z,24.84
2022-08-11T10:44:04.320Z,24.87
2022-08-11T10:45:04.079Z,24.89
2022-08-11T10:46:05.151Z,24.90
2022-08-11T10:47:04.060Z,24.92
2022-08-11T10:48:04.172Z,24.94
2022-08-11T10:49:04.032Z,24.98
2022-08-11T10:50:05.232Z,25.02
2022-08-11T10:51:03.995Z,25.07
2022-08-11T10:52:04.129Z,25.12
2022-08-11T10:53:03.989Z,25.16
2022-08-11T10:54:04.060Z,25.19
2022-08-11T10:55:03.943Z,25.25
2022-08-11T10:57:03.930Z,25.33
2022-08-11T10:58:05.665Z,25.36
2022-08-11T10:59:04.163Z,25.37
2022-08-11T11:00:03.963Z,25.37
2022-08-11T11:01:03.961Z,25.38
2022-08-11T11:02:04.010Z,25.39
2022-08-11T11:03:22.241Z,25.41
2022-08-11T11:04:04.845Z,25.44
2022-08-11T11:05:04.023Z,25.46
2022-08-11T11:06:12.864Z,25.49
2022-08-11T11:07:04.773Z,25.50
2022-08-11T11:08:03.908Z,25.52
2022-08-11T11:09:04.719Z,25.55
2022-08-11T11:10:03.904Z,25.60
2022-08-11T11:11:03.723Z,25.66
2022-08-11T11:12:03.775Z,25.76
2022-08-11T11:13:03.707Z,25.88
2022-08-11T11:14:03.826Z,25.98
2022-08-11T11:15:03.678Z,26.05
2022-08-11T11:16:03.807Z,26.12
2022-08-11T11:17:03.656Z,26.19
2022-08-11T11:18:04.830Z,26.22
2022-08-11T11:19:03.622Z,26.29
2022-08-11T11:20:03.825Z,26.38
2022-08-11T11:21:03.596Z,26.47
2022-08-11T11:22:03.724Z,26.55
2022-08-11T11:23:03.567Z,26.59
2022-08-11T11:24:03.686Z,26.61
2022-08-11T11:25:03.548Z,26.62
2022-08-11T11:26:03.626Z,26.61
2022-08-11T11:27:03.519Z,26.58
2022-08-11T11:28:05.658Z,26.54
2022-08-11T11:29:03.488Z,26.50
2022-08-11T11:30:03.700Z,26.45
2022-08-11T11:31:03.478Z,26.39
2022-08-11T11:32:03.528Z,26.32
2022-08-11T11:33:03.442Z,26.26
2022-08-11T11:34:06.463Z,26.21
2022-08-11T11:35:04.411Z,26.17
2022-08-11T11:36:03.510Z,26.14
2022-08-11T11:37:03.390Z,26.11
2022-08-11T11:38:05.616Z,26.09
2022-08-11T11:39:03.368Z,26.09
2022-08-11T11:40:03.422Z,26.08
2022-08-11T11:41:03.340Z,26.11
2022-08-11T11:42:03.404Z,26.13
2022-08-11T11:43:03.310Z,26.14
2022-08-11T11:44:03.441Z,26.14
2022-08-11T11:45:03.289Z,26.13
2022-08-11T11:46:03.431Z,26.15
2022-08-11T11:47:03.254Z,26.18
2022-08-11T11:48:03.410Z,26.23
2022-08-11T11:49:03.242Z,26.31
2022-08-11T11:50:04.232Z,26.41
2022-08-11T11:51:24.341Z,26.49
2022-08-11T11:52:03.203Z,26.59
2022-08-11T11:53:03.354Z,26.69
2022-08-11T11:54:03.163Z,26.77
2022-08-11T11:55:03.283Z,26.83
2022-08-11T11:56:03.140Z,26.87
2022-08-11T11:57:03.280Z,26.89
2022-08-11T11:58:03.113Z,26.88
2022-08-11T11:59:03.254Z,26.85
2022-08-11T12:00:03.096Z,26.77
2022-08-11T12:01:03.210Z,26.66
2022-08-11T12:02:11.811Z,26.57
2022-08-11T12:03:04.139Z,26.51
2022-08-11T12:04:03.193Z,26.46
2022-08-11T12:05:03.026Z,26.42
2022-08-11T12:06:03.132Z,26.39
2022-08-11T12:07:03.004Z,26.37
2022-08-11T12:08:05.220Z,26.35
2022-08-11T12:09:04.009Z,26.34
2022-08-11T12:10:03.105Z,26.35
2022-08-11T12:11:02.955Z,26.34
2022-08-11T12:12:04.056Z,26.36
2022-08-11T12:13:02.915Z,26.40
2022-08-11T12:14:24.105Z,26.45
2022-08-11T12:15:02.990Z,26.52
2022-08-11T12:16:32.041Z,26.57
2022-08-11T12:17:03.859Z,26.59
2022-08-11T12:19:35.777Z,26.11
2022-08-11T12:20:31.739Z,26.11
2022-08-11T12:21:13.387Z,26.39
2022-08-11T12:22:12.182Z,26.60
2022-08-11T12:23:14.147Z,26.76
2022-08-11T12:24:12.163Z,26.87
2022-08-11T12:25:12.233Z,26.92
2022-08-11T12:26:27.728Z,26.96
2022-08-11T12:27:15.634Z,26.95
2022-08-11T12:28:12.111Z,26.93
2022-08-11T12:29:12.300Z,26.90
2022-08-11T12:30:12.084Z,26.87
2022-08-11T12:31:12.185Z,26.86
2022-08-11T12:32:12.054Z,26.89
2022-08-11T12:33:12.174Z,26.89
2022-08-11T12:34:12.036Z,26.95
2022-08-11T12:35:12.105Z,27.03
2022-08-11T12:36:12.007Z,27.10
2022-08-11T12:37:13.291Z,27.16
2022-08-11T12:38:12.821Z,27.18
2022-08-11T12:39:23.011Z,27.16
2022-08-11T12:40:43.206Z,27.19
2022-08-11T12:41:14.976Z,27.21
2022-08-11T12:42:11.927Z,27.24
2022-08-11T12:43:21.645Z,27.27
2022-08-11T12:44:12.919Z,27.31
2022-08-11T12:45:22.214Z,27.34
2022-08-11T12:46:12.879Z,27.38
2022-08-11T12:47:14.218Z,27.41
2022-08-11T12:48:58.447Z,27.46
2022-08-11T12:49:12.868Z,27.49
2022-08-11T12:50:21.748Z,27.52
2022-08-11T12:51:12.808Z,27.50
2022-08-11T12:52:15.605Z,27.50
2022-08-11T12:53:11.780Z,27.52
2022-08-11T12:54:11.889Z,27.54
2022-08-11T12:55:13.762Z,27.58
2022-08-11T12:56:11.831Z,27.62
2022-08-11T12:57:11.729Z,27.62
2022-08-11T12:58:13.909Z,27.59
2022-08-11T12:59:11.723Z,27.59
2022-08-11T13:00:12.847Z,27.64